Time;durP1;ratioP1;P1;durP2;ratioP2;P2;SDS_P1;SDS_P2;PMS_P1;PMS_P2;Temp;Humidity;BMP_temperature;BMP_pressure;BME280_temperature;BME280_humidity;BME280_pressure;Samples;Min_cycle;Max_cycle;Signal;HPM_P1;HPM_P2
2024/02/02 00:01:41;;;;;;;22.45;14.82;;;;;;;4.65;50.24;95107.19;4154381;28;20413;-67
2024/02/02 00:03:42;;;;;;;21.50;14.40;;;;;;;4.53;49.90;95104.69;4158168;28;20372;-70
2024/02/02 00:05:45;;;;;;;23.95;14.38;;;;;;;4.38;50.82;95104.03;4163272;28;20091;-69
2024/02/02 00:07:47;;;;;;;20.30;13.25;;;;;;;4.33;50.43;95112.13;4160498;28;20380;-68
2024/02/02 00:09:49;;;;;;;27.75;14.20;;;;;;;4.34;50.63;95108.59;4163659;28;20053;-69
2024/02/02 00:11:51;;;;;;;21.52;13.65;;;;;;;4.29;50.67;95113.28;4176937;28;20037;-70
2024/02/02 00:13:53;;;;;;;22.90;13.88;;;;;;;3.94;51.97;95118.41;4175304;28;20045;-70
2024/02/02 00:15:55;;;;;;;25.13;14.18;;;;;;;3.65;52.86;95119.50;4177054;28;20045;-67
2024/02/02 00:17:58;;;;;;;23.35;14.05;;;;;;;3.59;53.14;95108.72;4161438;28;20100;-69
2024/02/02 00:20:00;;;;;;;20.50;12.80;;;;;;;3.81;53.01;95108.91;4173847;28;20075;-68
2024/02/02 00:22:02;;;;;;;20.13;11.88;;;;;;;4.08;51.66;95106.09;4176971;28;20045;-69
2024/02/02 00:24:04;;;;;;;15.18;10.77;;;;;;;4.30;51.31;95107.16;4168196;28;20048;-69
2024/02/02 00:26:07;;;;;;;19.30;11.05;;;;;;;4.54;51.02;95106.31;4176582;28;20126;-70
2024/02/02 00:28:09;;;;;;;15.73;9.13;;;;;;;4.75;49.67;95112.53;4186155;28;20374;-69
2024/02/02 00:30:11;;;;;;;16.13;9.50;;;;;;;4.97;48.89;95109.19;4156575;28;20128;-69
2024/02/02 00:32:13;;;;;;;17.05;9.35;;;;;;;5.09;49.02;95102.22;4150678;28;20112;-69
2024/02/02 00:34:15;;;;;;;16.77;9.57;;;;;;;5.01;48.71;95100.22;4151892;28;20061;-70
2024/02/02 00:36:17;;;;;;;14.65;9.75;;;;;;;5.12;49.06;95100.22;4154610;28;20133;-68
2024/02/02 00:38:19;;;;;;;14.48;9.30;;;;;;;5.23;48.38;95098.59;4176859;28;20700;-70
2024/02/02 00:40:21;;;;;;;15.65;9.35;;;;;;;5.37;48.39;95105.31;4187511;28;20114;-68
2024/02/02 00:42:24;;;;;;;16.92;9.43;;;;;;;5.48;47.98;95103.53;4160573;28;20441;-68
2024/02/02 00:44:26;;;;;;;15.10;8.80;;;;;;;5.54;48.10;95099.66;4151948;28;20060;-69
2024/02/02 00:46:28;;;;;;;15.55;9.32;;;;;;;5.59;47.83;95100.13;4164092;28;20046;-68
2024/02/02 00:48:30;;;;;;;14.40;8.45;;;;;;;5.67;48.10;95107.34;4158355;28;20373;-69
2024/02/02 00:50:32;;;;;;;15.55;8.57;;;;;;;5.71;47.91;95099.19;4170568;28;20081;-68
2024/02/02 00:52:34;;;;;;;14.93;8.05;;;;;;;5.82;47.97;95098.34;4175921;28;20114;-67
2024/02/02 00:54:36;;;;;;;13.95;8.07;;;;;;;5.85;47.54;95098.13;4170964;28;20606;-69
2024/02/02 00:56:38;;;;;;;13.02;7.65;;;;;;;5.85;47.36;95092.91;4149514;28;20054;-67
2024/02/02 00:58:39;;;;;;;11.00;7.07;;;;;;;5.79;47.75;95087.38;4155273;28;20049;-68
2024/02/02 01:00:42;;;;;;;11.35;7.03;;;;;;;5.85;48.30;95086.88;4156744;28;20746;-68
2024/02/02 01:02:44;;;;;;;11.30;6.30;;;;;;;5.91;47.90;95076.81;4158701;28;20081;-67
2024/02/02 01:04:45;;;;;;;9.73;6.63;;;;;;;5.90;47.91;95076.94;4158558;28;20128;-69
2024/02/02 01:06:47;;;;;;;11.13;6.68;;;;;;;6.00;47.84;95077.06;4160817;28;20084;-68
2024/02/02 01:08:49;;;;;;;11.82;7.03;;;;;;;6.00;46.88;95075.31;4158379;28;20053;-68
2024/02/02 01:10:51;;;;;;;9.48;6.05;;;;;;;6.07;46.99;95070.44;4149994;28;20084;-69
2024/02/02 01:12:53;;;;;;;11.63;7.00;;;;;;;6.04;46.50;95074.09;4172904;28;20052;-69
2024/02/02 01:14:55;;;;;;;12.63;6.78;;;;;;;6.09;46.24;95071.16;4175395;28;20064;-68
2024/02/02 01:16:58;;;;;;;11.18;6.65;;;;;;;6.13;45.74;95064.72;4155213;28;20058;-69
2024/02/02 01:18:59;;;;;;;14.60;7.20;;;;;;;6.24;45.62;95062.09;4167783;28;20050;-68
2024/02/02 01:21:02;;;;;;;11.05;7.10;;;;;;;6.26;45.38;95046.34;4176812;28;20045;-68
2024/02/02 01:23:04;;;;;;;12.18;6.65;;;;;;;6.39;45.17;95052.25;4174902;28;20056;-70
2024/02/02 01:25:09;;;;;;;13.80;7.53;;;;;;;6.44;44.85;95057.06;4164639;28;20124;-68
2024/02/02 01:27:11;;;;;;;12.60;6.50;;;;;;;6.32;44.89;95066.69;4160705;28;20637;-68
2024/02/02 01:29:13;;;;;;;12.00;7.13;;;;;;;6.30;44.78;95063.38;4181768;28;20049;-70
2024/02/02 01:31:15;;;;;;;13.15;8.18;;;;;;;6.29;44.57;95065.16;4176162;28;20053;-69
2024/02/02 01:33:17;;;;;;;12.18;7.05;;;;;;;6.33;44.36;95065.75;4177590;28;20060;-68
2024/02/02 01:35:19;;;;;;;13.02;7.50;;;;;;;6.39;44.45;95065.25;4184949;28;20084;-68
2024/02/02 01:37:21;;;;;;;10.65;8.07;;;;;;;6.49;44.30;95063.53;4156305;28;20492;-67
2024/02/02 01:39:23;;;;;;;15.20;8.13;;;;;;;6.52;44.14;95068.50;4189516;28;20139;-69
2024/02/02 01:41:25;;;;;;;11.95;7.53;;;;;;;6.59;43.83;95058.41;4168676;28;20046;-71
2024/02/02 01:43:27;;;;;;;12.85;8.30;;;;;;;6.63;44.33;95059.81;4186329;28;20128;-69
2024/02/02 01:45:30;;;;;;;11.05;7.50;;;;;;;6.56;44.44;95061.28;4183535;28;20136;-70
2024/02/02 01:47:32;;;;;;;11.93;8.07;;;;;;;6.60;44.38;95062.66;4179615;28;20416;-70
2024/02/02 01:49:34;;;;;;;11.85;7.88;;;;;;;6.57;44.75;95066.34;4161127;28;20471;-69
2024/02/02 01:51:36;;;;;;;11.75;7.55;;;;;;;6.63;44.94;95054.59;4189619;28;20045;-70
2024/02/02 01:53:38;;;;;;;13.75;7.78;;;;;;;6.63;44.73;95062.41;4190641;28;20049;-70
2024/02/02 01:55:40;;;;;;;11.13;7.55;;;;;;;6.61;45.07;95060.91;4191019;28;20044;-68
2024/02/02 01:57:42;;;;;;;9.93;7.75;;;;;;;6.57;45.29;95066.34;4192862;28;20641;-68
2024/02/02 01:59:44;;;;;;;12.73;7.97;;;;;;;6.67;45.51;95060.41;4149833;28;20135;-69
2024/02/02 02:01:45;;;;;;;11.48;7.93;;;;;;;6.78;45.44;95057.72;4165475;28;20051;-70
2024/02/02 02:03:48;;;;;;;10.48;7.85;;;;;;;6.78;45.88;95052.53;4159885;28;20076;-69
2024/02/02 02:05:50;;;;;;;13.32;8.02;;;;;;;6.76;45.95;95052.63;4168348;28;20048;-68
2024/02/02 02:07:52;;;;;;;17.13;8.15;;;;;;;6.71;46.35;95057.41;4160123;28;20053;-68
2024/02/02 02:09:54;;;;;;;12.43;7.70;;;;;;;6.73;45.97;95065.06;4170749;28;20053;-70
2024/02/02 02:11:56;;;;;;;12.23;7.57;;;;;;;6.77;46.43;95069.06;4161473;28;20127;-69
2024/02/02 02:13:58;;;;;;;10.50;7.68;;;;;;;6.80;46.18;95058.44;4159932;28;20056;-70
2024/02/02 02:16:00;;;;;;;11.82;8.05;;;;;;;6.75;46.81;95060.56;4178929;28;20048;-69
2024/02/02 02:18:02;;;;;;;13.68;7.93;;;;;;;6.68;46.66;95057.66;4173307;28;20569;-69
2024/02/02 02:20:10;;;;;;;12.40;8.10;;;;;;;6.74;46.95;95071.94;4169209;28;20483;-68
2024/02/02 02:22:12;;;;;;;12.05;7.78;;;;;;;6.72;46.96;95063.44;4143543;28;20046;-70
2024/02/02 02:24:14;;;;;;;15.75;7.93;;;;;;;6.76;46.75;95065.66;4176189;28;20855;-67
2024/02/02 02:26:17;;;;;;;13.38;8.38;;;;;;;6.78;46.89;95073.34;4190735;28;20053;-69
2024/02/02 02:28:19;;;;;;;11.68;8.40;;;;;;;6.79;46.61;95071.56;4173143;28;20048;-68
2024/02/02 02:30:21;;;;;;;12.88;8.10;;;;;;;6.73;46.54;95071.13;4158996;28;20049;-66
2024/02/02 02:32:23;;;;;;;13.10;8.25;;;;;;;6.81;46.26;95069.66;4174578;28;20059;-70
2024/02/02 02:34:26;;;;;;;12.70;8.77;;;;;;;6.81;46.17;95075.69;4175274;28;20593;-68
2024/02/02 02:36:28;;;;;;;12.63;8.18;;;;;;;6.77;45.59;95071.69;4150225;28;20053;-68
2024/02/02 02:38:30;;;;;;;11.90;8.52;;;;;;;6.75;45.94;95077.03;4177785;28;20072;-69
2024/02/02 02:43:48;;;;;;;13.02;8.13;;;;;;;6.64;46.08;95079.66;4188635;28;20498;-70
2024/02/02 02:45:50;;;;;;;14.88;9.02;;;;;;;6.59;45.57;95078.41;4163816;28;20076;-69
2024/02/02 02:47:52;;;;;;;14.60;8.23;;;;;;;6.68;45.79;95078.47;4178564;28;20067;-67
2024/02/02 02:49:54;;;;;;;11.73;9.35;;;;;;;6.70;46.23;95075.75;4178983;28;20056;-69
2024/02/02 02:51:56;;;;;;;14.43;8.75;;;;;;;6.66;46.35;95062.16;4185996;28;20053;-69
2024/02/02 02:53:58;;;;;;;14.40;9.98;;;;;;;6.64;46.90;95073.66;4190606;28;20099;-70
2024/02/02 02:56:00;;;;;;;13.05;10.20;;;;;;;6.66;46.98;95075.16;4181765;28;20047;-70
2024/02/02 02:58:02;;;;;;;17.65;9.23;;;;;;;6.56;47.30;95067.31;4163248;28;20460;-69
2024/02/02 03:00:09;;;;;;;14.88;8.93;;;;;;;6.65;47.35;95067.50;4181581;28;20152;-68
2024/02/02 03:02:11;;;;;;;16.05;9.82;;;;;;;6.65;47.45;95073.53;4169075;28;20095;-69
2024/02/02 03:04:13;;;;;;;12.40;9.45;;;;;;;6.50;48.13;95069.59;4178277;28;20080;-68
2024/02/02 03:06:15;;;;;;;11.93;9.63;;;;;;;6.55;48.88;95070.84;4171632;28;20420;-69
2024/02/02 03:08:17;;;;;;;13.50;10.05;;;;;;;6.61;49.10;95063.50;4181078;28;20309;-70
2024/02/02 03:10:21;;;;;;;14.43;10.27;;;;;;;6.50;49.60;95067.78;4162823;28;20045;-69
2024/02/02 03:12:23;;;;;;;16.73;10.60;;;;;;;6.60;49.23;95070.47;4169347;28;20488;-70
2024/02/02 03:14:25;;;;;;;14.05;9.68;;;;;;;6.44;50.57;95064.88;4180779;28;20400;-68
2024/02/02 03:16:27;;;;;;;13.90;10.40;;;;;;;6.56;50.31;95069.91;4175184;28;20129;-69
2024/02/02 03:18:29;;;;;;;16.85;10.98;;;;;;;6.58;50.33;95067.16;4161148;28;20129;-68
2024/02/02 03:20:31;;;;;;;14.32;10.05;;;;;;;6.55;50.17;95070.03;4184362;28;20132;-70
2024/02/02 03:22:34;;;;;;;13.73;10.32;;;;;;;6.56;49.52;95069.09;4179833;28;20400;-69
2024/02/02 03:24:35;;;;;;;17.20;10.98;;;;;;;6.61;49.87;95066.09;4157568;28;20488;-68
2024/02/02 03:26:37;;;;;;;12.38;9.45;;;;;;;6.59;49.28;95071.44;4173134;28;20049;-69
2024/02/02 03:28:39;;;;;;;18.40;11.48;;;;;;;6.54;49.45;95069.19;4162126;28;20049;-69
2024/02/02 03:30:41;;;;;;;15.30;10.38;;;;;;;6.48;50.42;95069.69;4170100;28;20064;-68
2024/02/02 03:32:44;;;;;;;17.80;10.43;;;;;;;6.43;50.99;95064.06;4154869;28;20046;-68
2024/02/02 03:34:46;;;;;;;17.08;11.05;;;;;;;6.27;50.83;95059.25;4174371;28;20452;-67
2024/02/02 03:36:49;;;;;;;14.90;11.18;;;;;;;6.35;51.03;95064.66;4174163;28;20049;-69
2024/02/02 03:38:50;;;;;;;19.30;11.80;;;;;;;6.25;51.20;95066.34;4177243;28;20135;-68
2024/02/02 03:40:53;;;;;;;21.55;12.50;;;;;;;6.25;51.33;95066.34;4144491;28;20064;-68
2024/02/02 03:42:55;;;;;;;21.52;11.43;;;;;;;6.18;51.21;95066.97;4135475;28;20042;-69
2024/02/02 03:44:57;;;;;;;16.55;12.10;;;;;;;6.14;52.11;95080.22;4175568;28;20053;-69
2024/02/02 03:46:59;;;;;;;17.55;12.48;;;;;;;6.17;52.11;95065.31;4176447;28;20052;-67
2024/02/02 03:49:00;;;;;;;18.35;12.63;;;;;;;6.22;52.49;95077.00;4178189;28;20060;-69
2024/02/02 03:51:03;;;;;;;21.17;12.88;;;;;;;6.14;52.74;95074.19;4177747;28;20049;-69
2024/02/02 03:53:05;;;;;;;18.75;12.63;;;;;;;6.19;53.21;95077.25;4160647;28;20057;-68
2024/02/02 03:55:07;;;;;;;20.30;12.30;;;;;;;6.16;53.52;95095.72;4175645;28;20402;-69
2024/02/02 03:57:10;;;;;;;19.70;12.68;;;;;;;6.05;53.61;95085.34;4160010;28;20049;-68
2024/02/02 03:59:12;;;;;;;20.60;12.82;;;;;;;5.99;54.31;95091.03;4180375;28;20137;-70
2024/02/02 04:01:14;;;;;;;18.27;12.75;;;;;;;6.06;54.15;95092.19;4176415;28;20714;-68
2024/02/02 04:03:16;;;;;;;18.98;12.40;;;;;;;6.03;54.30;95088.06;4180313;28;20052;-68
2024/02/02 04:05:19;;;;;;;16.08;12.60;;;;;;;5.98;54.57;95092.81;4159064;28;20100;-68
2024/02/02 04:07:21;;;;;;;21.13;13.05;;;;;;;5.95;53.99;95098.22;4177472;28;20057;-69
2024/02/02 04:09:23;;;;;;;19.50;12.82;;;;;;;6.04;54.09;95089.69;4180204;28;20366;-69
2024/02/02 04:11:25;;;;;;;18.98;13.43;;;;;;;5.90;54.42;95100.34;4176790;28;20049;-68
2024/02/02 04:13:27;;;;;;;21.77;13.73;;;;;;;5.82;55.11;95105.31;4159293;28;20111;-69
2024/02/02 04:15:28;;;;;;;18.70;12.60;;;;;;;5.91;54.89;95109.78;4169272;28;20056;-69
2024/02/02 04:17:34;;;;;;;22.00;13.55;;;;;;;5.92;54.55;95104.47;4187789;28;20072;-69
2024/02/02 04:19:36;;;;;;;20.10;13.23;;;;;;;5.84;55.41;95117.25;4161646;28;20246;-69
2024/02/02 04:21:38;;;;;;;16.35;12.50;;;;;;;5.86;55.28;95117.13;4156121;28;20100;-68
2024/02/02 04:23:40;;;;;;;22.83;13.23;;;;;;;5.84;55.67;95122.44;4183979;28;20056;-70
2024/02/02 04:25:42;;;;;;;16.83;12.70;;;;;;;5.82;55.60;95124.34;4178027;28;20524;-68
2024/02/02 04:27:43;;;;;;;14.82;12.00;;;;;;;5.81;56.17;95125.28;4156676;28;20080;-68
2024/02/02 04:29:45;;;;;;;14.73;12.65;;;;;;;5.89;55.89;95137.69;4176253;28;20099;-68
2024/02/02 04:31:47;;;;;;;19.45;13.00;;;;;;;5.91;55.83;95141.81;4164682;28;20037;-67
2024/02/02 04:33:49;;;;;;;15.68;11.15;;;;;;;5.93;55.78;95152.09;4175086;28;20115;-67
2024/02/02 04:35:51;;;;;;;17.52;12.77;;;;;;;5.69;56.79;95147.84;4155155;28;20057;-70
2024/02/02 04:37:53;;;;;;;18.17;11.95;;;;;;;5.77;56.33;95154.25;4159682;28;20063;-72
2024/02/02 04:39:55;;;;;;;17.15;12.80;;;;;;;5.73;56.25;95148.47;4169653;28;20052;-68
2024/02/02 04:41:57;;;;;;;19.15;14.05;;;;;;;5.45;57.27;95149.75;4181234;28;20706;-70
2024/02/02 04:43:59;;;;;;;19.80;14.38;;;;;;;5.59;57.22;95146.09;4174521;28;20049;-69
2024/02/02 04:46:01;;;;;;;17.23;13.70;;;;;;;5.67;57.42;95151.53;4131497;28;20158;-71
2024/02/02 04:48:05;;;;;;;17.65;12.52;;;;;;;5.61;57.65;95144.19;4179721;28;20053;-68
2024/02/02 04:50:07;;;;;;;;;;;;;;;5.71;57.88;95145.16;4161337;28;20053;-70
2024/02/02 04:52:09;;;;;;;17.27;13.20;;;;;;;5.73;58.19;95161.44;4160359;28;20271;-70
2024/02/02 04:54:10;;;;;;;18.73;13.48;;;;;;;5.42;59.48;95157.75;4172552;28;20100;-70
2024/02/02 04:56:12;;;;;;;16.88;13.70;;;;;;;5.46;59.64;95160.03;4183378;28;20466;-68
2024/02/02 04:58:14;;;;;;;17.85;13.48;;;;;;;5.57;59.76;95159.22;4177182;28;20702;-69
2024/02/02 05:00:17;;;;;;;16.35;13.35;;;;;;;5.53;59.58;95169.00;4169993;28;20803;-71
2024/02/02 05:02:19;;;;;;;16.80;13.60;;;;;;;5.51;59.41;95163.09;4172691;28;20048;-71
2024/02/02 05:04:21;;;;;;;17.63;14.70;;;;;;;5.54;59.31;95169.81;4194501;28;20044;-70
2024/02/02 05:06:23;;;;;;;18.38;13.70;;;;;;;5.50;59.22;95177.00;4164290;28;20056;-71
2024/02/02 05:08:24;;;;;;;18.35;13.93;;;;;;;5.49;59.67;95184.94;4165336;28;20650;-69
2024/02/02 05:10:26;;;;;;;18.27;13.68;;;;;;;5.44;59.88;95176.66;4183483;28;20044;-69
2024/02/02 05:12:29;;;;;;;17.17;13.63;;;;;;;5.44;60.11;95181.84;4171832;28;20049;-68
2024/02/02 05:14:31;;;;;;;16.52;13.52;;;;;;;5.52;59.94;95184.72;4166546;28;20104;-68
2024/02/02 05:16:33;;;;;;;17.58;13.63;;;;;;;5.58;60.31;95180.81;4169361;28;20475;-71
2024/02/02 05:18:34;;;;;;;17.48;14.27;;;;;;;5.55;59.73;95192.28;4179816;28;20049;-71
2024/02/02 05:20:38;;;;;;;17.00;13.45;;;;;;;5.56;60.25;95188.72;4179452;28;20099;-70
2024/02/02 05:22:40;;;;;;;16.42;13.85;;;;;;;5.45;60.46;95186.94;4179959;28;20045;-71
2024/02/02 05:24:42;;;;;;;17.02;14.70;;;;;;;5.40;60.68;95193.41;4182143;28;20048;-71
2024/02/02 05:26:46;;;;;;;15.65;12.77;;;;;;;5.30;60.90;95194.13;4181311;28;20412;-69
2024/02/02 05:28:48;;;;;;;17.15;13.98;;;;;;;5.32;61.50;95200.03;4178578;28;20044;-71
2024/02/02 05:30:50;;;;;;;17.65;14.23;;;;;;;5.23;61.35;95199.91;4163148;28;20054;-71
2024/02/02 05:32:52;;;;;;;15.75;13.77;;;;;;;5.30;62.19;95208.88;4184141;28;20040;-69
2024/02/02 05:34:55;;;;;;;16.63;14.30;;;;;;;5.24;61.90;95219.72;4179522;28;20041;-70
2024/02/02 05:36:57;;;;;;;15.32;13.45;;;;;;;5.16;62.16;95220.28;4167403;28;20040;-70
2024/02/02 05:38:59;;;;;;;16.80;13.80;;;;;;;5.04;63.24;95218.59;4180344;28;20052;-70
2024/02/02 05:41:03;;;;;;;16.45;14.30;;;;;;;4.93;63.30;95212.41;4165679;28;20393;-71
2024/02/02 05:43:05;;;;;;;18.10;14.57;;;;;;;4.99;63.51;95220.69;4176442;28;20108;-71
2024/02/02 05:45:07;;;;;;;17.85;15.40;;;;;;;5.07;63.12;95215.78;4178974;28;20132;-70
2024/02/02 05:47:09;;;;;;;19.40;15.35;;;;;;;5.17;63.23;95218.53;4179940;28;20076;-71
2024/02/02 05:49:11;;;;;;;20.63;15.90;;;;;;;5.08;63.55;95212.25;4183724;28;20091;-69
2024/02/02 05:51:13;;;;;;;18.17;15.98;;;;;;;5.00;63.39;95210.19;4182449;28;20052;-69
2024/02/02 05:53:15;;;;;;;17.35;14.15;;;;;;;5.06;64.23;95220.16;4190657;28;20364;-68
2024/02/02 05:55:18;;;;;;;19.60;16.65;;;;;;;5.03;64.36;95220.34;4182472;28;20495;-70
2024/02/02 05:57:19;;;;;;;20.55;16.48;;;;;;;4.91;64.46;95240.25;4181225;28;20484;-70
2024/02/02 05:59:22;;;;;;;19.98;17.77;;;;;;;4.78;65.09;95226.53;4183988;28;20115;-70
2024/02/02 06:01:25;;;;;;;22.23;17.48;;;;;;;4.77;65.50;95232.63;4181284;28;20061;-71
2024/02/02 06:03:27;;;;;;;22.15;17.85;;;;;;;4.76;65.79;95240.56;4183883;28;20051;-70
2024/02/02 06:05:32;;;;;;;23.77;18.13;;;;;;;4.85;65.95;95234.69;4179960;28;20048;-70
2024/02/02 06:07:34;;;;;;;21.38;18.45;;;;;;;4.86;65.85;95246.72;4148421;28;20052;-68
2024/02/02 06:09:36;;;;;;;25.05;18.95;;;;;;;4.79;65.64;95259.31;4163250;28;20145;-71
2024/02/02 06:11:38;;;;;;;21.75;18.98;;;;;;;4.78;66.33;95249.88;4158214;28;20060;-72
2024/02/02 06:13:40;;;;;;;23.85;19.05;;;;;;;4.86;65.53;95247.56;4161284;28;20473;-72
2024/02/02 06:15:42;;;;;;;21.38;18.10;;;;;;;4.70;66.57;95258.19;4180228;28;20051;-71
2024/02/02 06:17:44;;;;;;;22.48;18.58;;;;;;;4.67;66.80;95260.22;4188911;28;20095;-71
2024/02/02 06:19:46;;;;;;;22.42;19.05;;;;;;;4.55;67.12;95248.91;4189889;28;20099;-70
2024/02/02 06:21:48;;;;;;;23.73;19.50;;;;;;;4.62;67.39;95263.09;4166936;28;20044;-69
2024/02/02 06:23:50;;;;;;;25.85;19.50;;;;;;;4.61;67.38;95266.66;4175290;28;20148;-70
2024/02/02 06:25:52;;;;;;;21.98;18.75;;;;;;;4.60;67.65;95267.56;4175135;28;20048;-71
2024/02/02 06:27:53;;;;;;;23.27;19.23;;;;;;;4.52;67.89;95275.09;4161535;28;20393;-70
2024/02/02 06:29:55;;;;;;;23.75;18.85;;;;;;;4.50;67.92;95275.19;4171865;28;20053;-70
2024/02/02 06:31:57;;;;;;;24.27;19.33;;;;;;;4.45;67.81;95279.88;4167298;28;20092;-70
2024/02/02 06:33:59;;;;;;;23.55;19.80;;;;;;;4.44;68.59;95283.41;4141442;28;20100;-70
2024/02/02 06:36:01;;;;;;;26.33;20.73;;;;;;;4.47;68.69;95278.03;4172712;28;20242;-70
2024/02/02 06:38:03;;;;;;;25.70;21.67;;;;;;;4.53;68.65;95287.13;4177834;28;20120;-71
2024/02/02 06:40:05;;;;;;;24.60;21.10;;;;;;;4.60;68.55;95287.50;4177456;28;20512;-70
2024/02/02 06:42:07;;;;;;;25.85;22.92;;;;;;;4.60;68.05;95290.09;4177345;28;20049;-70
2024/02/02 06:44:09;;;;;;;26.65;22.13;;;;;;;4.60;67.41;95290.09;4159849;28;20048;-70
2024/02/02 06:46:11;;;;;;;25.25;21.23;;;;;;;4.66;67.47;95287.09;4159350;28;20614;-70
2024/02/02 06:48:14;;;;;;;27.85;21.77;;;;;;;4.65;67.56;95275.06;4177900;28;20049;-69
2024/02/02 06:50:16;;;;;;;27.33;22.90;;;;;;;4.60;67.22;95285.75;4177642;28;20400;-69
2024/02/02 06:52:19;;;;;;;25.73;21.75;;;;;;;4.50;67.26;95282.97;4181491;28;20049;-71
2024/02/02 06:54:21;;;;;;;29.23;22.23;;;;;;;4.64;67.09;95271.63;4160338;28;20045;-70
2024/02/02 06:56:39;;;;;;;29.25;23.15;;;;;;;4.77;66.99;95263.78;4174292;28;20406;-71
2024/02/02 06:58:41;;;;;;;23.77;20.75;;;;;;;4.87;66.12;95266.56;4171747;28;20103;-70
2024/02/02 07:00:43;;;;;;;26.50;20.73;;;;;;;4.81;65.67;95270.41;4180338;28;20131;-71
2024/02/02 07:02:46;;;;;;;22.77;19.33;;;;;;;4.87;66.06;95277.78;4177889;28;20060;-71
2024/02/02 07:04:48;;;;;;;22.08;18.05;;;;;;;4.72;64.61;95282.28;4168595;28;20112;-71
2024/02/02 07:06:50;;;;;;;20.73;16.83;;;;;;;4.85;64.26;95284.84;4179419;28;20083;-71
2024/02/02 07:08:54;;;;;;;23.52;19.42;;;;;;;4.91;64.27;95284.41;4177639;28;20045;-72
2024/02/02 07:11:19;;;;;;;;;;;;;;;4.95;64.48;95276.38;4168949;28;20049;-71
2024/02/02 07:13:21;;;;;;;24.27;18.75;;;;;;;4.96;63.25;95302.25;4175544;28;19921;-69
2024/02/02 07:15:28;;;;;;;22.77;17.80;;;;;;;4.91;63.76;95291.38;4174501;28;20052;-71
2024/02/02 07:17:35;;;;;;;22.17;18.75;;;;;;;4.90;64.30;95311.31;4178842;28;20132;-72
2024/02/02 07:19:40;;;;;;;21.85;18.17;;;;;;;4.84;64.10;95313.50;4160199;28;20076;-72
2024/02/02 07:21:42;;;;;;;23.48;19.45;;;;;;;4.93;63.72;95310.25;4169475;28;20144;-70
2024/02/02 07:23:44;;;;;;;24.80;19.80;;;;;;;4.89;63.76;95320.03;4133065;28;20038;-72
2024/02/02 07:25:53;;;;;;;23.17;19.15;;;;;;;4.82;63.94;95321.41;4175943;28;20353;-71
2024/02/02 07:27:56;;;;;;;;;;;;;;;4.90;63.61;95316.50;4170570;28;20059;-71
2024/02/02 07:29:59;;;;;;;25.30;19.73;;;;;;;4.80;64.44;95325.06;4152652;28;19925;-70
2024/02/02 07:32:04;;;;;;;27.10;19.08;;;;;;;4.76;64.48;95319.25;4165337;28;20071;-71
2024/02/02 07:34:47;;;;;;;25.27;20.10;;;;;;;4.80;64.76;95331.06;4166197;28;20041;-71
2024/02/02 07:36:50;;;;;;;24.73;20.70;;;;;;;4.79;64.79;95329.41;4159170;28;20409;-70
2024/02/02 07:38:55;;;;;;;24.48;19.70;;;;;;;4.82;64.38;95325.75;4177392;28;20050;-70
2024/02/02 07:41:04;;;;;;;25.77;20.80;;;;;;;4.87;64.50;95321.91;4182012;28;20045;-71
2024/02/02 07:43:06;;;;;;;26.45;21.92;;;;;;;4.83;65.03;95336.03;4183116;28;20052;-69
2024/02/02 07:45:09;;;;;;;25.83;19.92;;;;;;;4.68;65.42;95326.72;4182266;28;20045;-69
2024/02/02 07:47:11;;;;;;;25.15;21.30;;;;;;;4.75;65.79;95320.16;4183097;28;20092;-70
2024/02/02 07:49:13;;;;;;;24.35;21.10;;;;;;;4.81;65.47;95327.53;4189342;28;20123;-68
2024/02/02 07:51:16;;;;;;;23.75;20.42;;;;;;;4.81;65.47;95345.69;4180791;28;20111;-70
2024/02/02 07:53:18;;;;;;;26.25;21.67;;;;;;;4.77;66.34;95335.63;4177509;28;20620;-70
2024/02/02 07:55:20;;;;;;;26.70;22.35;;;;;;;4.84;66.04;95316.94;4167664;28;20061;-71
2024/02/02 07:57:22;;;;;;;26.20;21.65;;;;;;;4.88;65.46;95317.53;4159948;28;20049;-71
2024/02/02 07:59:24;;;;;;;27.17;22.25;;;;;;;4.89;65.71;95325.22;4160003;28;20116;-66
2024/02/02 08:01:28;;;;;;;24.60;21.60;;;;;;;4.85;65.81;95334.16;4152404;28;20053;-70
2024/02/02 08:03:30;;;;;;;23.60;20.30;;;;;;;4.86;65.68;95334.97;4159413;28;20543;-70
2024/02/02 08:05:36;;;;;;;24.10;20.67;;;;;;;4.87;65.40;95334.06;4177489;28;20052;-70
2024/02/02 08:07:38;;;;;;;22.83;20.27;;;;;;;4.86;65.41;95335.84;4177842;28;20053;-72
2024/02/02 08:09:40;;;;;;;23.95;19.60;;;;;;;4.92;65.42;95332.78;4186260;28;20458;-70
2024/02/02 08:11:42;;;;;;;23.23;19.52;;;;;;;4.73;66.09;95329.81;4158360;28;20477;-71
2024/02/02 08:13:44;;;;;;;21.05;18.35;;;;;;;4.65;65.93;95334.75;4179979;28;20058;-71
2024/02/02 08:15:46;;;;;;;22.38;19.00;;;;;;;4.82;65.66;95331.78;4157908;28;20057;-70
2024/02/02 08:17:49;;;;;;;23.92;18.77;;;;;;;4.87;65.19;95321.91;4177401;28;20247;-70
2024/02/02 08:19:51;;;;;;;24.17;19.75;;;;;;;4.96;64.59;95323.00;4160818;28;20457;-73
2024/02/02 08:21:55;;;;;;;25.50;17.23;;;;;;;5.07;63.60;95322.25;4173376;28;20046;-70
2024/02/02 08:23:58;;;;;;;25.00;20.45;;;;;;;5.08;63.99;95332.53;4179061;28;20083;-71
2024/02/02 08:26:00;;;;;;;24.42;17.73;;;;;;;4.99;64.13;95330.59;4170846;28;20049;-71
2024/02/02 08:28:05;;;;;;;22.05;18.67;;;;;;;5.16;63.88;95331.97;4178530;28;20044;-71
2024/02/02 08:30:08;;;;;;;24.75;17.95;;;;;;;5.28;62.53;95331.09;4174532;28;20057;-71
2024/02/02 08:32:10;;;;;;;22.35;18.23;;;;;;;5.31;62.34;95330.88;4185196;28;20067;-72
2024/02/02 08:34:11;;;;;;;24.40;18.40;;;;;;;4.99;62.26;95329.75;4171603;28;20048;-72
2024/02/02 08:36:13;;;;;;;22.60;16.73;;;;;;;5.07;61.88;95328.25;4188717;28;20361;-70
2024/02/02 08:38:16;;;;;;;26.10;16.95;;;;;;;5.11;61.09;95334.91;4158879;28;20053;-71
2024/02/02 08:40:25;;;;;;;22.27;16.37;;;;;;;5.08;60.96;95335.13;4168044;28;20085;-72
2024/02/02 08:42:27;;;;;;;26.80;16.20;;;;;;;5.23;59.89;95333.19;4162005;28;20141;-71
2024/02/02 08:44:31;;;;;;;19.55;14.38;;;;;;;5.14;59.78;95318.25;4180611;28;20052;-70
2024/02/02 08:46:36;;;;;;;19.52;14.02;;;;;;;5.31;59.46;95317.91;4165210;28;20050;-69
2024/02/02 08:48:45;;;;;;;20.17;15.45;;;;;;;5.66;58.34;95314.47;4160356;28;20050;-70
2024/02/02 08:50:47;;;;;;;17.20;12.80;;;;;;;5.43;57.54;95330.91;4178360;28;20129;-70
2024/02/02 08:52:50;;;;;;;17.17;13.57;;;;;;;5.54;57.84;95323.16;4159842;28;20042;-70
2024/02/02 08:54:52;;;;;;;20.17;14.43;;;;;;;5.72;57.17;95329.59;4144419;28;20115;-71
2024/02/02 08:57:31;;;;;;;22.13;13.82;;;;;;;5.77;56.63;95316.25;4174905;28;20743;-72
2024/02/02 08:59:39;;;;;;;16.52;10.77;;;;;;;5.77;55.13;95320.63;4174437;28;20053;-70
2024/02/02 09:01:44;;;;;;;18.80;12.07;;;;;;;5.98;54.51;95328.63;4174239;28;20049;-71
2024/02/02 09:03:47;;;;;;;22.60;11.85;;;;;;;5.74;54.30;95329.47;4175634;28;20259;-69
2024/02/02 09:05:56;;;;;;;16.07;11.00;;;;;;;5.79;54.56;95319.56;4177971;28;20472;-71
2024/02/02 09:08:19;;;;;;;20.02;12.43;;;;;;;5.67;53.87;95334.31;4157505;28;20299;-69
2024/02/02 09:10:30;;;;;;;17.58;11.68;;;;;;;5.38;54.45;95349.44;4131679;28;20054;-71
2024/02/02 09:12:33;;;;;;;18.20;12.35;;;;;;;5.40;54.24;95338.91;4172226;28;20049;-73
2024/02/02 09:14:35;;;;;;;20.75;11.93;;;;;;;5.07;54.21;95343.84;4158929;28;20076;-69
2024/02/02 09:16:46;;;;;;;16.10;12.13;;;;;;;4.97;54.29;95339.41;4165678;28;20174;-70
2024/02/02 09:18:55;;;;;;;14.45;10.40;;;;;;;5.05;54.19;95344.91;4143292;28;20070;-71
2024/02/02 09:20:58;;;;;;;14.55;10.57;;;;;;;4.97;55.19;95329.03;4180692;28;20053;-70
2024/02/02 09:23:00;;;;;;;16.70;11.35;;;;;;;4.98;54.67;95328.94;4153241;28;20042;-71
2024/02/02 09:25:04;;;;;;;17.90;10.60;;;;;;;5.05;54.14;95350.09;4165233;28;20564;-71
2024/02/02 09:27:08;;;;;;;14.00;10.82;;;;;;;5.18;54.24;95339.66;4154992;28;20046;-71
2024/02/02 09:29:10;;;;;;;21.77;11.73;;;;;;;5.15;53.46;95345.09;4144229;28;20397;-70
2024/02/02 09:31:22;;;;;;;23.13;11.10;;;;;;;5.33;53.58;95331.59;4171970;28;20098;-69
2024/02/02 09:33:49;;;;;;;21.83;11.27;;;;;;;5.61;53.27;95342.53;4169610;28;20053;-72
2024/02/02 09:35:54;;;;;;;17.85;11.20;;;;;;;5.64;52.96;95339.75;4148559;28;20050;-70
2024/02/02 09:37:56;;;;;;;13.20;10.73;;;;;;;5.49;53.07;95343.47;4166897;28;20164;-71
2024/02/02 09:40:21;;;;;;;15.70;11.73;;;;;;;5.36;53.47;95343.53;4163183;28;20124;-70